Terminal Aerodrome Forecast
Issued by NWS Tulsa, OK

Home | Current Version | Previous Version | Text Only | Print | Product List | Glossary On
Versions: 1 2 3 4 5 6 7 8 9 10 11 12 13 14 15 16 17
000
FTUS44 KTSA 231100
TAFTUL
TAF
KTUL 231120Z 2312/2412 15006KT P6SM FEW250
     FM231500 17016G25KT P6SM SCT250
     FM240000 16012KT P6SM BKN150 PROB30 2409/2412 4SM -TSRA
      OVC040CB=

USA.gov is the U.S. government's official web portal to all federal, state and local government web resources and services.